Terminal Aerodrome Forecast
Issued by NWS

Current Version | Previous Version | Text Only | Print | Product List | Glossary On
Versions: 1 2 3 4 5 6 7 8 9 10 11 12 13 14 15 16 17 18 19 20 21 22 23 24 25 26
000
FTUS43 KLSX 300520
TAFUIN
TAF
KUIN 300520Z 3006/0106 04011KT P6SM -RA OVC004
     FM301400 09012G18KT 5SM -SHRA OVC006
     FM301800 13013G21KT 4SM -SHRA VCTS OVC010CB
     FM302200 18013G23KT P6SM VCSH BKN035
     FM010000 21012G21KT P6SM BKN060=

USA.gov is the U.S. government's official web portal to all federal, state and local government web resources and services.